Aviation Digital Data Service (ADDS)

Output produced by METARs form (1323 UTC 21 August 2019)
found at http://www.aviationweather.gov/metar/data/
 
Forecast for: UWLW (ULYANOVSK , RU)
Text: TAF UWLW 211045Z 2112/2212 34003MPS 8000 SCT030
Forecast period: 1200 UTC 21 August 2019 to 1200 UTC 22 August 2019
Forecast type: FROM: standard forecast or significant change
Winds: from the NNW (340 degrees) at 7 MPH (6 knots; 3.1 m/s)
Visibility: 5 miles (8 km)
Ceiling: at least 12,000 feet AGL
Clouds: scattered clouds at 3000 feet AGL
Weather: no significant weather forecast for this period
Text: TEMPO 2112/2118 01006G13MPS
Forecast period: 1200 to 1800 UTC 21 August 2019
Forecast type: TEMPORARY: The following changes expected for less than half the time period
Winds: from the N (10 degrees) at 14 MPH (12 knots; 6.2 m/s)
gusting to 29 MPH (25 knots; 12.9 m/s)
Visibility: missing
Ceiling: unknown
Clouds: missing
Weather: no significant weather forecast for this period
Text: TEMPO 2118/2206 3100 BR
Forecast period: 1800 UTC 21 August 2019 to 0600 UTC 22 August 2019
Forecast type: TEMPORARY: The following changes expected for less than half the time period
Visibility: 1.93 miles (3.11 km)
Ceiling: unknown
Clouds: missing
Weather: BR  (mist)